createdAt,value
2022-07-28T00:01:06.698Z,97.07
2022-07-28T00:04:08.626Z,96.62
2022-07-28T00:07:10.746Z,96.51
2022-07-28T00:10:13.000Z,96.18
2022-07-28T00:13:15.070Z,95.81
2022-07-28T00:16:17.376Z,95.67
2022-07-28T00:19:20.399Z,95.55
2022-07-28T00:22:22.323Z,95.67
2022-07-28T00:25:24.701Z,95.23
2022-07-28T00:28:26.770Z,95.17
2022-07-28T00:31:28.836Z,95.36
2022-07-28T00:34:30.973Z,95.05
2022-07-28T00:37:32.893Z,94.91
2022-07-28T00:40:53.715Z,94.89
2022-07-28T00:43:55.764Z,95.06
2022-07-28T00:46:57.772Z,94.90
2022-07-28T00:49:59.841Z,94.89
2022-07-28T00:53:02.550Z,94.83
2022-07-28T00:56:06.126Z,94.49
2022-07-28T00:59:08.564Z,94.61
2022-07-28T01:02:11.983Z,94.75
2022-07-28T01:05:15.650Z,94.57
2022-07-28T01:08:39.208Z,94.73
2022-07-28T01:12:11.298Z,94.86
2022-07-28T01:15:51.920Z,94.94
2022-07-28T01:19:10.782Z,94.73
2022-07-28T01:22:19.456Z,95.04
2022-07-28T01:25:23.622Z,94.68
2022-07-28T01:29:00.035Z,94.82
2022-07-28T01:32:07.303Z,94.62
2022-07-28T01:35:19.686Z,94.61
2022-07-28T01:38:24.484Z,94.80
2022-07-28T01:41:30.197Z,94.79
2022-07-28T01:44:35.320Z,95.24
2022-07-28T01:47:38.062Z,94.96
2022-07-28T01:50:42.257Z,95.04
2022-07-28T01:53:46.442Z,94.96
2022-07-28T01:56:50.354Z,94.97
2022-07-28T01:59:53.815Z,94.79
2022-07-28T02:02:57.678Z,95.03
2022-07-28T02:06:02.949Z,95.26
2022-07-28T02:09:07.001Z,94.80
2022-07-28T02:12:10.394Z,94.91
2022-07-28T02:15:15.137Z,94.94
2022-07-28T02:18:17.344Z,94.82
2022-07-28T02:21:21.546Z,95.21
2022-07-28T02:24:28.796Z,95.09
2022-07-28T02:27:30.768Z,94.91
2022-07-28T02:30:38.341Z,95.17
2022-07-28T02:33:59.971Z,94.96
2022-07-28T02:37:03.811Z,94.96
2022-07-28T02:40:12.665Z,95.07
2022-07-28T02:43:18.116Z,95.29
2022-07-28T02:46:25.185Z,94.98
2022-07-28T02:49:36.120Z,95.33
2022-07-28T02:52:42.342Z,95.15
2022-07-28T02:55:47.984Z,95.10
2022-07-28T02:58:52.103Z,95.52
2022-07-28T03:01:55.399Z,95.35
2022-07-28T03:05:03.127Z,95.35
2022-07-28T03:08:10.939Z,94.94
2022-07-28T03:11:14.706Z,95.26
2022-07-28T03:14:16.888Z,95.85
2022-07-28T03:17:19.724Z,96.10
2022-07-28T03:20:21.888Z,96.31
2022-07-28T03:23:30.371Z,96.10
2022-07-28T03:26:48.169Z,96.27
2022-07-28T03:29:59.126Z,95.80
2022-07-28T03:33:03.940Z,96.08
2022-07-28T03:36:09.514Z,95.91
2022-07-28T03:39:12.586Z,95.66
2022-07-28T03:42:21.290Z,95.39
2022-07-28T03:45:24.246Z,94.93
2022-07-28T03:48:33.260Z,95.08
2022-07-28T03:51:35.376Z,94.83
2022-07-28T03:54:37.380Z,94.96
2022-07-28T03:57:39.421Z,94.68
2022-07-28T04:00:41.445Z,94.95
2022-07-28T04:03:44.489Z,94.84
2022-07-28T04:06:46.806Z,94.61
2022-07-28T04:09:48.811Z,94.57
2022-07-28T04:12:57.232Z,94.41
2022-07-28T04:16:00.395Z,94.39
2022-07-28T04:19:02.599Z,94.17
2022-07-28T04:22:04.641Z,94.13
2022-07-28T04:25:07.401Z,93.86
2022-07-28T04:28:09.493Z,93.92
2022-07-28T04:31:11.796Z,93.55
2022-07-28T04:34:15.819Z,93.65
2022-07-28T04:37:18.537Z,93.63
2022-07-28T04:40:20.607Z,93.47
2022-07-28T04:43:23.046Z,93.42
2022-07-28T04:46:25.502Z,93.51
2022-07-28T04:49:27.656Z,93.52
2022-07-28T04:52:30.452Z,94.08
2022-07-28T04:55:32.822Z,93.38
2022-07-28T04:58:35.271Z,93.65
2022-07-28T05:01:57.668Z,93.52
2022-07-28T05:04:59.730Z,93.16
2022-07-28T05:08:01.871Z,93.68
2022-07-28T05:11:04.466Z,93.73
2022-07-28T05:14:06.512Z,93.85
2022-07-28T05:17:14.777Z,93.50
2022-07-28T05:20:17.658Z,93.49
2022-07-28T05:23:19.699Z,93.79
2022-07-28T05:26:22.305Z,93.61
2022-07-28T05:29:24.722Z,93.61
2022-07-28T05:32:26.857Z,93.24
2022-07-28T05:35:29.135Z,93.34
2022-07-28T05:38:31.639Z,93.20
2022-07-28T05:41:33.701Z,93.06
2022-07-28T05:44:38.417Z,92.68
2022-07-28T05:47:43.066Z,92.40
2022-07-28T05:50:45.426Z,92.19
2022-07-28T05:53:47.497Z,91.98
2022-07-28T05:56:50.442Z,91.86
2022-07-28T05:59:52.646Z,91.61
2022-07-28T06:02:54.848Z,91.35
2022-07-28T06:06:14.730Z,91.05
2022-07-28T06:09:18.891Z,90.91
2022-07-28T06:12:20.941Z,90.60
2022-07-28T06:15:26.031Z,90.14
2022-07-28T06:18:28.113Z,89.91
2022-07-28T06:21:30.257Z,89.73
2022-07-28T06:24:32.706Z,89.32
2022-07-28T06:27:34.759Z,88.96
2022-07-28T06:30:36.804Z,88.53
2022-07-28T06:33:38.936Z,87.62
2022-07-28T06:36:40.982Z,87.33
2022-07-28T06:39:43.086Z,87.02
2022-07-28T06:42:46.509Z,86.12
2022-07-28T06:45:48.797Z,85.11
2022-07-28T06:48:50.942Z,83.74
2022-07-28T06:51:53.054Z,82.53
2022-07-28T06:54:58.257Z,81.71
2022-07-28T06:58:01.112Z,80.32
2022-07-28T07:01:07.951Z,78.56
2022-07-28T07:04:10.241Z,77.43
2022-07-28T07:07:17.012Z,76.42
2022-07-28T07:10:19.454Z,75.47
2022-07-28T07:13:21.609Z,73.89
2022-07-28T07:16:23.669Z,73.23
2022-07-28T07:19:25.715Z,72.30
2022-07-28T07:22:27.768Z,70.91
2022-07-28T07:25:29.866Z,70.04
2022-07-28T07:28:32.293Z,67.38
2022-07-28T07:31:35.707Z,66.38
2022-07-28T07:34:39.528Z,65.62
2022-07-28T07:37:41.799Z,64.15
2022-07-28T07:40:43.963Z,61.70
2022-07-28T07:43:47.865Z,60.42
2022-07-28T07:46:50.304Z,61.01
2022-07-28T07:49:52.449Z,60.34
2022-07-28T07:52:55.107Z,60.09
2022-07-28T07:55:57.480Z,61.73
2022-07-28T07:58:59.980Z,61.33
2022-07-28T08:02:02.301Z,60.48
2022-07-28T08:05:04.742Z,57.94
2022-07-28T08:08:07.210Z,58.57
2022-07-28T08:11:11.153Z,59.95
2022-07-28T08:14:13.374Z,60.30
2022-07-28T08:17:15.580Z,60.72
2022-07-28T08:20:18.037Z,61.26
2022-07-28T08:23:25.839Z,59.89
2022-07-28T08:26:29.938Z,58.62
2022-07-28T08:29:32.344Z,57.20
2022-07-28T08:32:34.467Z,58.15
2022-07-28T08:35:36.597Z,58.39
2022-07-28T08:38:38.646Z,57.63
2022-07-28T08:42:15.635Z,55.62
2022-07-28T08:45:20.957Z,54.03
2022-07-28T08:48:23.686Z,51.46
2022-07-28T08:51:28.604Z,51.13
2022-07-28T08:54:30.762Z,51.90
2022-07-28T08:57:36.825Z,51.23
2022-07-28T09:00:38.799Z,49.42
2022-07-28T09:03:42.016Z,49.39
2022-07-28T09:06:44.610Z,49.22
2022-07-28T09:09:50.835Z,47.35
2022-07-28T09:12:59.379Z,46.65
2022-07-28T09:16:01.758Z,45.18
2022-07-28T09:19:03.946Z,46.57
2022-07-28T09:22:07.300Z,45.35
2022-07-28T09:25:18.907Z,43.70
2022-07-28T09:28:21.108Z,44.33
2022-07-28T09:31:26.099Z,42.85
2022-07-28T09:34:28.357Z,42.17
2022-07-28T09:37:30.383Z,40.81
2022-07-28T09:40:32.473Z,41.40
2022-07-28T09:43:40.043Z,40.98
2022-07-28T09:46:42.209Z,37.96
2022-07-28T09:49:44.745Z,39.45
2022-07-28T09:52:46.883Z,39.00
2022-07-28T09:56:01.123Z,38.67
2022-07-28T09:59:06.816Z,40.21
2022-07-28T10:02:11.105Z,40.74
2022-07-28T10:05:13.457Z,40.74
2022-07-28T10:08:15.586Z,40.66
2022-07-28T10:11:21.894Z,40.46
2022-07-28T10:14:32.821Z,38.72
2022-07-28T10:17:35.004Z,37.30
2022-07-28T10:20:37.360Z,37.67
2022-07-28T10:23:40.208Z,38.61
2022-07-28T10:26:45.900Z,35.80
2022-07-28T10:29:55.682Z,35.97
2022-07-28T10:33:00.113Z,33.90
2022-07-28T10:36:03.020Z,34.25
2022-07-28T10:39:13.220Z,34.46
2022-07-28T10:42:15.743Z,35.41
2022-07-28T10:45:18.038Z,37.24
2022-07-28T10:48:23.897Z,38.66
2022-07-28T10:51:28.347Z,37.21
2022-07-28T10:54:37.340Z,33.82
2022-07-28T10:58:11.165Z,33.99
2022-07-28T11:01:53.508Z,34.90
2022-07-28T11:04:58.229Z,32.89
2022-07-28T11:08:08.237Z,32.30
2022-07-28T11:11:10.215Z,33.67
2022-07-28T11:14:24.979Z,30.44
2022-07-28T11:17:33.171Z,32.32
2022-07-28T11:20:56.384Z,31.95
2022-07-28T11:24:00.970Z,32.31
2022-07-28T11:27:04.225Z,31.96
2022-07-28T11:30:11.005Z,31.65
2022-07-28T11:33:13.132Z,31.31
2022-07-28T11:36:15.301Z,30.71
2022-07-28T11:39:44.096Z,31.64
2022-07-28T11:42:47.354Z,30.40
2022-07-28T11:46:07.770Z,28.27
2022-07-28T11:49:16.953Z,30.46
2022-07-28T11:52:21.090Z,30.72
2022-07-28T11:55:55.294Z,31.75
2022-07-28T11:58:45.956Z,29.55
2022-07-28T12:01:54.973Z,30.45
2022-07-28T12:05:00.387Z,30.59
2022-07-28T12:08:02.659Z,32.11
2022-07-28T12:11:05.519Z,30.48
2022-07-28T12:14:13.066Z,30.03
2022-07-28T12:17:15.941Z,30.05
2022-07-28T12:20:19.076Z,29.79
2022-07-28T12:23:34.894Z,31.61
2022-07-28T12:26:49.963Z,30.89
2022-07-28T12:30:02.243Z,29.19
2022-07-28T12:33:20.687Z,30.56
2022-07-28T12:36:24.621Z,30.31
2022-07-28T12:39:27.048Z,28.64
2022-07-28T12:42:32.579Z,28.16
2022-07-28T12:45:44.949Z,28.74
2022-07-28T12:48:48.630Z,27.92
2022-07-28T12:51:50.772Z,27.05
2022-07-28T12:54:55.717Z,26.78
2022-07-28T12:57:59.389Z,26.65
2022-07-28T13:01:01.806Z,27.30
2022-07-28T13:04:03.994Z,25.21
2022-07-28T13:07:13.289Z,26.33
2022-07-28T13:10:15.548Z,27.26
2022-07-28T13:13:19.799Z,27.09
2022-07-28T13:16:24.883Z,27.40
2022-07-28T13:19:26.985Z,27.89
2022-07-28T13:22:30.899Z,27.08
2022-07-28T13:25:34.394Z,26.71
2022-07-28T13:28:36.629Z,26.73
2022-07-28T13:31:39.453Z,27.50
2022-07-28T13:34:42.912Z,27.33
2022-07-28T13:37:45.373Z,27.75
2022-07-28T13:40:47.422Z,26.72
2022-07-28T13:43:49.673Z,27.02
2022-07-28T13:46:53.413Z,28.23
2022-07-28T13:49:57.525Z,28.25
2022-07-28T13:52:59.597Z,28.44
2022-07-28T13:56:01.710Z,28.23
2022-07-28T13:59:03.782Z,28.38
2022-07-28T14:02:15.178Z,27.42
2022-07-28T14:05:18.350Z,27.60
2022-07-28T14:08:20.404Z,28.06
2022-07-28T14:11:28.014Z,29.67
2022-07-28T14:14:30.488Z,30.79
2022-07-28T14:17:44.296Z,30.94
2022-07-28T14:20:48.323Z,31.66
2022-07-28T14:23:51.206Z,29.30
2022-07-28T14:26:53.396Z,23.30
2022-07-28T14:29:55.498Z,21.23
2022-07-28T14:32:57.590Z,19.43
2022-07-28T14:35:59.849Z,17.46
2022-07-28T14:39:02.191Z,20.81
2022-07-28T14:42:05.185Z,19.69
2022-07-28T14:45:08.015Z,17.88
2022-07-28T14:48:10.091Z,16.40
2022-07-28T14:51:12.252Z,16.62
2022-07-28T14:54:14.611Z,16.87
2022-07-28T14:57:17.398Z,17.34
2022-07-28T15:00:19.653Z,17.17
2022-07-28T15:03:21.802Z,17.60
2022-07-28T15:06:23.866Z,16.76
2022-07-28T15:09:26.029Z,16.72
2022-07-28T15:12:28.355Z,17.91
2022-07-28T15:15:30.426Z,20.06
2022-07-28T15:18:32.561Z,20.37
2022-07-28T15:21:37.262Z,17.90
2022-07-28T15:24:41.633Z,15.94
2022-07-28T15:27:48.026Z,15.62
2022-07-28T15:30:53.080Z,15.06
2022-07-28T15:33:57.727Z,16.51
2022-07-28T15:37:01.237Z,15.68
2022-07-28T15:40:04.622Z,15.02
2022-07-28T15:43:06.625Z,15.39
2022-07-28T15:46:11.969Z,15.09
2022-07-28T15:49:14.084Z,15.70
2022-07-28T15:52:16.158Z,15.90
2022-07-28T15:55:18.318Z,15.59
2022-07-28T15:58:21.692Z,14.96
2022-07-28T16:01:26.893Z,16.52
2022-07-28T16:04:29.144Z,18.02
2022-07-28T16:07:33.427Z,18.22
2022-07-28T16:10:35.674Z,19.79
2022-07-28T16:13:41.676Z,19.45
2022-07-28T16:16:43.780Z,20.77
2022-07-28T16:19:49.655Z,21.17
2022-07-28T16:22:52.817Z,21.12
2022-07-28T16:25:54.922Z,24.92
2022-07-28T16:28:57.299Z,27.92
2022-07-28T16:31:59.417Z,29.82
2022-07-28T16:35:01.395Z,33.61
2022-07-28T16:38:05.308Z,34.48
2022-07-28T16:41:07.442Z,35.18
2022-07-28T16:44:09.466Z,37.16
2022-07-28T16:47:12.477Z,40.97
2022-07-28T16:50:16.296Z,42.45
2022-07-28T16:53:18.381Z,44.95
2022-07-28T16:56:20.461Z,46.11
2022-07-28T16:59:23.741Z,48.06
2022-07-28T17:02:39.104Z,47.29
2022-07-28T17:05:41.321Z,49.17
2022-07-28T17:08:44.264Z,50.37
2022-07-28T17:11:46.446Z,51.40
2022-07-28T17:14:48.505Z,51.31
2022-07-28T17:17:54.772Z,52.82
2022-07-28T17:20:56.786Z,53.81
2022-07-28T17:23:58.840Z,55.08
2022-07-28T17:30:22.923Z,56.85
2022-07-28T17:33:27.669Z,57.40
2022-07-28T17:36:35.655Z,58.79
2022-07-28T17:39:37.759Z,58.91
2022-07-28T17:42:39.806Z,59.62
2022-07-28T17:45:41.950Z,59.86
2022-07-28T17:48:44.334Z,59.96
2022-07-28T17:51:47.932Z,60.41
2022-07-28T17:55:08.294Z,60.95
2022-07-28T17:58:22.746Z,62.09
2022-07-28T18:01:29.447Z,62.55
2022-07-28T18:04:31.449Z,63.07
2022-07-28T18:07:49.145Z,63.13
2022-07-28T18:10:54.474Z,63.60
2022-07-28T18:14:04.461Z,63.53
2022-07-28T18:17:07.471Z,64.32
2022-07-28T18:20:10.069Z,64.36
2022-07-28T18:23:14.361Z,64.59
2022-07-28T18:26:16.347Z,65.05
2022-07-28T18:29:21.197Z,66.27
2022-07-28T18:32:23.560Z,66.25
2022-07-28T18:35:25.545Z,66.79
2022-07-28T18:38:28.023Z,67.10
2022-07-28T18:41:34.423Z,67.48
2022-07-28T18:44:48.156Z,68.00
2022-07-28T18:47:50.401Z,68.27
2022-07-28T18:50:52.491Z,68.60
2022-07-28T18:53:54.732Z,68.71
2022-07-28T18:56:57.019Z,68.35
2022-07-28T18:59:59.039Z,68.34
2022-07-28T19:03:01.684Z,68.44
2022-07-28T19:06:04.329Z,68.98
2022-07-28T19:09:06.517Z,70.33
2022-07-28T19:12:09.516Z,70.46
2022-07-28T19:15:11.538Z,70.75
2022-07-28T19:18:13.636Z,71.15
2022-07-28T19:21:15.724Z,71.42
2022-07-28T19:24:18.253Z,71.25
2022-07-28T19:27:20.928Z,71.13
2022-07-28T19:30:23.041Z,70.88
2022-07-28T19:33:25.714Z,70.69
2022-07-28T19:36:28.644Z,70.51
2022-07-28T19:39:34.433Z,70.62
2022-07-28T19:42:36.517Z,70.47
2022-07-28T19:45:38.581Z,70.59
2022-07-28T19:48:40.641Z,70.54
2022-07-28T19:51:42.887Z,70.89
2022-07-28T19:54:51.335Z,71.61
2022-07-28T19:57:59.290Z,72.34
2022-07-28T20:01:03.692Z,72.39
2022-07-28T20:04:05.863Z,72.94
2022-07-28T20:07:08.231Z,73.08
2022-07-28T20:10:10.273Z,73.67
2022-07-28T20:13:12.264Z,73.41
2022-07-28T20:16:14.402Z,73.60
2022-07-28T20:19:16.552Z,73.47
2022-07-28T20:22:18.665Z,73.66
2022-07-28T20:25:20.704Z,73.76
2022-07-28T20:28:22.767Z,73.96
2022-07-28T20:31:25.033Z,74.11
2022-07-28T20:34:27.163Z,74.69
2022-07-28T20:37:36.397Z,74.81
2022-07-28T20:40:39.275Z,75.08
2022-07-28T20:43:41.310Z,75.39
2022-07-28T20:46:43.432Z,75.30
2022-07-28T20:49:45.412Z,75.55
2022-07-28T20:52:48.385Z,75.54
2022-07-28T20:55:50.427Z,75.80
2022-07-28T20:58:52.579Z,76.03
2022-07-28T21:01:54.690Z,75.99
2022-07-28T21:04:56.693Z,76.13
2022-07-28T21:08:00.173Z,76.39
2022-07-28T21:11:03.358Z,76.46
2022-07-28T21:14:05.414Z,76.60
2022-07-28T21:17:07.533Z,76.76
2022-07-28T21:20:10.127Z,77.16
2022-07-28T21:23:12.714Z,77.41
2022-07-28T21:26:14.766Z,77.41
2022-07-28T21:32:18.894Z,77.62
2022-07-28T21:35:21.005Z,77.90
2022-07-28T21:38:23.381Z,78.02
2022-07-28T21:41:28.118Z,78.43
2022-07-28T21:44:38.728Z,79.19
2022-07-28T21:47:41.951Z,79.21
2022-07-28T21:50:44.448Z,79.20
2022-07-28T21:53:50.900Z,79.21
2022-07-28T21:56:52.972Z,79.85
2022-07-28T21:59:55.105Z,80.08
2022-07-28T22:02:57.213Z,80.21
2022-07-28T22:06:02.474Z,80.39
2022-07-28T22:09:04.647Z,80.80
2022-07-28T22:12:07.263Z,80.92
2022-07-28T22:15:09.656Z,81.14
2022-07-28T22:18:16.712Z,82.04
2022-07-28T22:21:19.054Z,81.77
2022-07-28T22:24:21.416Z,81.58
2022-07-28T22:27:23.640Z,81.40
2022-07-28T22:30:25.836Z,81.41
2022-07-28T22:33:27.950Z,81.71
2022-07-28T22:36:29.955Z,82.23
2022-07-28T22:39:33.404Z,82.62
2022-07-28T22:42:35.450Z,83.11
2022-07-28T22:45:49.740Z,83.40
2022-07-28T22:48:53.541Z,83.37
2022-07-28T22:51:55.589Z,83.84
2022-07-28T22:54:57.728Z,83.78
2022-07-28T22:58:04.907Z,83.46
2022-07-28T23:01:07.762Z,83.54
2022-07-28T23:04:09.900Z,83.62
2022-07-28T23:07:13.721Z,83.19
2022-07-28T23:10:17.069Z,83.10
2022-07-28T23:13:19.436Z,83.12
2022-07-28T23:16:21.589Z,83.61
2022-07-28T23:19:23.651Z,84.27
2022-07-28T23:22:25.700Z,84.23
2022-07-28T23:25:28.663Z,84.42
2022-07-28T23:28:31.563Z,84.67
2022-07-28T23:31:33.723Z,84.24
2022-07-28T23:34:37.085Z,84.67
2022-07-28T23:37:39.143Z,84.85
2022-07-28T23:40:41.225Z,84.74
2022-07-28T23:43:43.353Z,84.46
2022-07-28T23:46:45.526Z,84.29
2022-07-28T23:49:48.930Z,84.05
2022-07-28T23:52:50.981Z,84.14
2022-07-28T23:55:53.839Z,84.42
2022-07-28T23:58:56.144Z,84.45
